地図

経路データ

SID SEASON NUMBER BASIN SUBBASIN NAME ISO_TIME NATURE LAT LON WMO_WIND WMO_PRES WMO_AGENCY TRACK_TYPE DIST2LAND LANDFALL IFLAG USA_AGENCY USA_ATCF_ID USA_LAT USA_LON USA_RECORD USA_STATUS USA_WIND USA_PRES USA_SSHS USA_R34_NE USA_R34_SE USA_R34_SW USA_R34_NW USA_R50_NE USA_R50_SE USA_R50_SW USA_R50_NW USA_R64_NE USA_R64_SE USA_R64_SW USA_R64_NW USA_POCI USA_ROCI USA_RMW USA_EYE TOKYO_LAT TOKYO_LON TOKYO_GRADE TOKYO_WIND TOKYO_PRES TOKYO_R50_DIR TOKYO_R50_LONG TOKYO_R50_SHORT TOKYO_R30_DIR TOKYO_R30_LONG TOKYO_R30_SHORT TOKYO_LAND CMA_LAT CMA_LON CMA_CAT CMA_WIND CMA_PRES HKO_LAT HKO_LON HKO_CAT HKO_WIND HKO_PRES NEWDELHI_LAT NEWDELHI_LON NEWDELHI_GRADE NEWDELHI_WIND NEWDELHI_PRES NEWDELHI_CI NEWDELHI_DP NEWDELHI_POCI REUNION_LAT REUNION_LON REUNION_TYPE REUNION_WIND REUNION_PRES REUNION_TNUM REUNION_CI REUNION_RMW REUNION_R34_NE REUNION_R34_SE REUNION_R34_SW REUNION_R34_NW REUNION_R50_NE REUNION_R50_SE REUNION_R50_SW REUNION_R50_NW REUNION_R64_NE REUNION_R64_SE REUNION_R64_SW REUNION_R64_NW BOM_LAT BOM_LON BOM_TYPE BOM_WIND BOM_PRES BOM_TNUM BOM_CI BOM_RMW BOM_R34_NE BOM_R34_SE BOM_R34_SW BOM_R34_NW BOM_R50_NE BOM_R50_SE BOM_R50_SW BOM_R50_NW BOM_R64_NE BOM_R64_SE BOM_R64_SW BOM_R64_NW BOM_ROCI BOM_POCI BOM_EYE BOM_POS_METHOD BOM_PRES_METHOD NADI_LAT NADI_LON NADI_CAT NADI_WIND NADI_PRES WELLINGTON_LAT WELLINGTON_LON WELLINGTON_WIND WELLINGTON_PRES DS824_LAT DS824_LON DS824_STAGE DS824_WIND DS824_PRES TD9636_LAT TD9636_LON TD9636_STAGE TD9636_WIND TD9636_PRES TD9635_LAT TD9635_LON TD9635_WIND TD9635_PRES TD9635_ROCI NEUMANN_LAT NEUMANN_LON NEUMANN_CLASS NEUMANN_WIND NEUMANN_PRES MLC_LAT MLC_LON MLC_CLASS MLC_WIND MLC_PRES USA_GUST BOM_GUST BOM_GUST_PER REUNION_GUST REUNION_GUST_PER USA_SEAHGT USA_SEARAD_NE USA_SEARAD_SE USA_SEARAD_SW USA_SEARAD_NW STORM_SPEED STORM_DIR
1872032S15074 1872 4 SI MM NOT_NAMED 1872-02-01 06:00:00 NR -14.8000 74.2000 reunion spur-split 1843 1819 _____O________ -1 -14.8000 74.2000 99 9.90000 4 251
1872032S15074 1872 4 SI MM NOT_NAMED 1872-02-01 09:00:00 NR -14.8721 73.9824 spur-split 1819 1799 _____P________ -1 -14.8721 73.9824 99 4 251
1872032S15074 1872 4 SI MM NOT_NAMED 1872-02-01 12:00:00 NR -14.9455 73.7617 spur-split 1799 1765 _____P________ -1 -14.9455 73.7617 99 5 251
1872032S15074 1872 4 SI MM NOT_NAMED 1872-02-01 15:00:00 NR -15.0218 73.5347 spur-split 1765 1741 _____P________ -1 -15.0218 73.5347 99 5 251
1872032S15074 1872 4 SI MM NOT_NAMED 1872-02-01 18:00:00 NR -15.1026 73.2986 spur-split 1741 1717 _____P________ -1 -15.1026 73.2986 99 5 250
1872032S15074 1872 4 SI MM NOT_NAMED 1872-02-01 21:00:00 NR -15.1893 73.0501 spur-split 1717 1682 _____P________ -1 -15.1893 73.0501 99 5 250
1872032S15074 1872 4 SI MM NOT_NAMED 1872-02-02 00:00:00 NR -15.2834 72.7862 spur-split 1682 1648 _____P________ -1 -15.2834 72.7862 99 6 249
1872032S15074 1872 4 SI MM NOT_NAMED 1872-02-02 03:00:00 NR -15.3865 72.5039 spur-split 1648 1614 _____P________ -1 -15.3865 72.5039 99 6 249
1872032S15074 1872 4 SI MM NOT_NAMED 1872-02-02 06:00:00 NR -15.5000 72.2000 reunion spur-split 1614 1580 _____O________ -1 -15.5000 72.2000 99 9.90000 7 249
1872032S15074 1872 4 SI MM NOT_NAMED 1872-02-02 09:00:00 NR -15.6254 71.8723 spur-split 1580 1532 _____P________ -1 -15.6254 71.8723 99 7 248
1872032S15074 1872 4 SI MM NOT_NAMED 1872-02-02 12:00:00 NR -15.7647 71.5225 spur-split 1532 1498 _____P________ -1 -15.7647 71.5225 99 8 247
1872032S15074 1872 4 SI MM NOT_NAMED 1872-02-02 15:00:00 NR -15.9196 71.1532 spur-split 1498 1450 _____P________ -1 -15.9196 71.1532 99 8 246
1872032S15074 1872 4 SI MM NOT_NAMED 1872-02-02 18:00:00 NR -16.0923 70.7668 spur-split 1450 1403 _____P________ -1 -16.0923 70.7668 99 8 244
1872032S15074 1872 4 SI MM NOT_NAMED 1872-02-02 21:00:00 NR -16.2847 70.3658 spur-split 1403 1355 _____P________ -1 -16.2847 70.3658 99 9 243
1872032S15074 1872 4 SI MM NOT_NAMED 1872-02-03 00:00:00 NR -16.4987 69.9528 spur-split 1355 1307 _____P________ -1 -16.4987 69.9528 99 9 241
1872032S15074 1872 4 SI MM NOT_NAMED 1872-02-03 03:00:00 NR -16.7365 69.5300 spur-split 1297 1246 _____P________ -1 -16.7365 69.5300 99 10 238
1872032S15074 1872 4 SI MM NOT_NAMED 1872-02-03 06:00:00 NR -17.0000 69.1000 reunion spur-split 1246 1195 _____O________ -1 -17.0000 69.1000 99 9.90000 10 237
1872032S15074 1872 4 SI MM NOT_NAMED 1872-02-03 09:00:00 NR -17.2945 68.6257 spur-split 1185 1134 _____P________ -1 -17.2945 68.6257 99 11 236
1872032S15074 1872 4 SI MM NOT_NAMED 1872-02-03 12:00:00 NR -17.6169 68.1345 spur-split 1124 1074 _____P________ -1 -17.6169 68.1345 99 12 235
1872032S15074 1872 4 SI MM NOT_NAMED 1872-02-03 15:00:00 NR -17.9611 67.6382 spur-split 1060 1011 _____P________ -1 -17.9611 67.6382 99 12 233
1872032S15074 1872 4 SI MM NOT_NAMED 1872-02-03 18:00:00 NR -18.3210 67.1486 spur-split 1001 949 _____P________ -1 -18.3210 67.1486 99 12 231
1872032S15074 1872 4 SI MM NOT_NAMED 1872-02-03 21:00:00 NR -18.6907 66.6777 spur-split 949 901 _____P________ -1 -18.6907 66.6777 99 11 229
1872032S15074 1872 4 SI MM NOT_NAMED 1872-02-04 00:00:00 NR -19.0642 66.2377 spur-split 889 852 _____P________ -1 -19.0642 66.2377 99 11 227
1872032S15074 1872 4 SI MM NOT_NAMED 1872-02-04 03:00:00 NR -19.4359 65.8410 spur-split 842 806 _____P________ -1 -19.4359 65.8410 99 10 223
1872032S15074 1872 4 SI MM NOT_NAMED 1872-02-04 06:00:00 NR -19.8000 65.5000 reunion spur-split 806 772 _____O________ -1 -19.8000 65.5000 99 9.90000 9 222
1872032S15074 1872 4 SI MM NOT_NAMED 1872-02-04 09:00:00 NR -20.1230 65.1908 spur-split 772 740 _____P________ -1 -20.1230 65.1908 99 8 220
1872032S15074 1872 4 SI MM NOT_NAMED 1872-02-04 12:00:00 NR -20.4410 64.9295 spur-split 740 719 _____P________ -1 -20.4410 64.9295 99 8 215
1872032S15074 1872 4 SI MM NOT_NAMED 1872-02-04 15:00:00 NR -20.7568 64.7183 spur-split 720 710 _____P________ -1 -20.7568 64.7183 99 7 209
1872032S15074 1872 4 SI MM NOT_NAMED 1872-02-04 18:00:00 NR -21.0733 64.5597 spur-split 712 702 _____P________ -1 -21.0733 64.5597 99 7 201
1872032S15074 1872 4 SI MM NOT_NAMED 1872-02-04 21:00:00 NR -21.3932 64.4561 spur-split 706 696 _____P________ -1 -21.3932 64.4561 99 7 192
1872032S15074 1872 4 SI MM NOT_NAMED 1872-02-05 00:00:00 NR -21.7192 64.4100 spur-split 702 702 _____P________ -1 -21.7192 64.4100 99 7 184
1872032S15074 1872 4 SI MM NOT_NAMED 1872-02-05 03:00:00 NR -22.0540 64.4237 spur-split 712 712 _____P________ -1 -22.0540 64.4237 99 7 173
1872032S15074 1872 4 SI MM NOT_NAMED 1872-02-05 06:00:00 NR -22.4000 64.5000 reunion spur-split 732 732 _____O________ -1 -22.4000 64.5000 99 9.90000 8 164
1872032S15074 1872 4 SI MM NOT_NAMED 1872-02-05 09:00:00 NR -22.8111 64.6523 spur-split 766 766 _____P________ -1 -22.8111 64.6523 99 9 158
1872032S15074 1872 4 SI MM NOT_NAMED 1872-02-05 12:00:00 NR -23.2385 64.8776 spur-split 801 801 _____P________ -1 -23.2385 64.8776 99 10 152
1872032S15074 1872 4 SI MM NOT_NAMED 1872-02-05 15:00:00 NR -23.6707 65.1591 spur-split 851 851 _____P________ -1 -23.6707 65.1591 99 10 147
1872032S15074 1872 4 SI MM NOT_NAMED 1872-02-05 18:00:00 NR -24.0960 65.4799 spur-split 897 897 _____P________ -1 -24.0960 65.4799 99 10 144
1872032S15074 1872 4 SI MM NOT_NAMED 1872-02-05 21:00:00 NR -24.5029 65.8223 spur-split 944 944 _____P________ -1 -24.5029 65.8223 99 10 141
1872032S15074 1872 4 SI MM NOT_NAMED 1872-02-06 00:00:00 NR -24.8800 66.1687 spur-split 1000 1000 _____P________ -1 -24.8800 66.1687 99 9 139
1872032S15074 1872 4 SI MM NOT_NAMED 1872-02-06 03:00:00 NR -25.2160 66.5007 spur-split 1042 1042 _____P________ -1 -25.2160 66.5007 99 8 137
1872032S15074 1872 4 SI MM NOT_NAMED 1872-02-06 06:00:00 NR -25.5000 66.8000 reunion spur-split 1085 1085 _____O________ -1 -25.5000 66.8000 99 9.90000 7 136
1872032S15074 1872 4 SI MM NOT_NAMED 1872-02-06 09:00:00 NR -25.7242 67.0520 spur-split 1122 1122 _____P________ -1 -25.7242 67.0520 99 6 134
1872032S15074 1872 4 SI MM NOT_NAMED 1872-02-06 12:00:00 NR -25.8935 67.2586 spur-split 1150 1150 _____P________ -1 -25.8935 67.2586 99 4 131
1872032S15074 1872 4 SI MM NOT_NAMED 1872-02-06 15:00:00 NR -26.0160 67.4259 spur-split 1165 1165 _____P________ -1 -26.0160 67.4259 99 3 127
1872032S15074 1872 4 SI MM NOT_NAMED 1872-02-06 18:00:00 NR -26.0994 67.5604 spur-split 1188 1188 _____P________ -1 -26.0994 67.5604 99 3 122
1872032S15074 1872 4 SI MM NOT_NAMED 1872-02-06 21:00:00 NR -26.1518 67.6685 spur-split 1202 1202 _____P________ -1 -26.1518 67.6685 99 2 115
1872032S15074 1872 4 SI MM NOT_NAMED 1872-02-07 00:00:00 NR -26.1808 67.7567 spur-split 1210 1210 _____P________ -1 -26.1808 67.7567 99 2 106
1872032S15074 1872 4 SI MM NOT_NAMED 1872-02-07 03:00:00 NR -26.1943 67.8317 spur-split 1210 1210 _____P________ -1 -26.1943 67.8317 99 1 98
1872032S15074 1872 4 SI MM NOT_NAMED 1872-02-07 06:00:00 NR -26.2000 67.9000 reunion spur-split 1219 _____O________ -1 -26.2000 67.9000 99 9.90000 1 96

IBTrACS Databaseについて

本データベースは、米国NOAAが公開する1842年以降の世界の熱帯低気圧のベストトラックデータアーカイブInternational Best Track Archive for Climate Stewardship (IBTrACS)を、ウェブで閲覧しやすい形式に変換したものです。

最終更新日:2021-12-01